createdAt,value
2018-11-07T00:00:08.451Z,47.70
2018-11-07T00:02:34.683Z,47.70
2018-11-07T00:05:00.905Z,47.70
2018-11-07T00:07:27.140Z,47.70
2018-11-07T00:09:53.378Z,47.80
2018-11-07T00:12:19.605Z,47.80
2018-11-07T00:14:45.835Z,48.40
2018-11-07T00:17:12.058Z,47.70
2018-11-07T00:19:38.292Z,47.70
2018-11-07T00:22:04.525Z,47.60
2018-11-07T00:24:30.743Z,47.60
2018-11-07T00:26:56.983Z,47.70
2018-11-07T00:29:23.211Z,47.60
2018-11-07T00:31:49.438Z,47.70
2018-11-07T00:34:15.669Z,47.70
2018-11-07T00:36:41.900Z,47.70
2018-11-07T00:39:08.131Z,47.70
2018-11-07T00:41:34.359Z,47.60
2018-11-07T00:44:00.585Z,47.60
2018-11-07T00:46:26.819Z,47.60
2018-11-07T00:48:53.053Z,47.60
2018-11-07T00:51:19.276Z,47.60
2018-11-07T00:53:45.504Z,47.60
2018-11-07T00:56:11.739Z,47.60
2018-11-07T00:58:37.963Z,47.50
2018-11-07T01:01:04.190Z,47.70
2018-11-07T01:03:30.430Z,47.70
2018-11-07T01:05:56.655Z,47.60
2018-11-07T01:08:22.887Z,47.60
2018-11-07T01:10:49.110Z,47.60
2018-11-07T01:13:15.350Z,47.50
2018-11-07T01:15:41.582Z,47.50
2018-11-07T01:18:07.806Z,47.50
2018-11-07T01:20:34.032Z,47.60
2018-11-07T01:23:01.130Z,47.50
2018-11-07T01:25:27.308Z,47.50
2018-11-07T01:27:53.534Z,47.60
2018-11-07T01:30:19.768Z,47.60
2018-11-07T01:32:46.003Z,47.50
2018-11-07T01:35:12.231Z,47.50
2018-11-07T01:37:38.470Z,47.50
2018-11-07T01:40:04.696Z,47.50
2018-11-07T01:42:30.928Z,47.50
2018-11-07T01:44:57.156Z,47.50
2018-11-07T01:47:23.381Z,47.50
2018-11-07T01:49:49.614Z,47.50
2018-11-07T01:52:15.847Z,47.50
2018-11-07T01:54:42.075Z,47.50
2018-11-07T01:57:08.299Z,47.50
2018-11-07T01:59:34.534Z,47.50
2018-11-07T02:02:00.758Z,47.50
2018-11-07T02:04:26.987Z,47.50
2018-11-07T02:06:53.227Z,47.50
2018-11-07T02:09:19.452Z,47.40
2018-11-07T02:11:45.683Z,47.40
2018-11-07T02:14:11.915Z,47.40
2018-11-07T02:16:38.144Z,47.30
2018-11-07T02:19:04.374Z,47.30
2018-11-07T02:21:30.599Z,47.40
2018-11-07T02:23:56.822Z,47.40
2018-11-07T02:26:23.105Z,47.40
2018-11-07T02:28:50.522Z,47.30
2018-11-07T02:31:16.752Z,47.30
2018-11-07T02:33:42.981Z,47.30
2018-11-07T02:36:09.207Z,47.50
2018-11-07T02:38:35.431Z,47.40
2018-11-07T02:41:01.668Z,47.30
2018-11-07T02:43:27.895Z,47.40
2018-11-07T02:45:54.131Z,47.40
2018-11-07T02:48:20.351Z,47.40
2018-11-07T02:50:46.580Z,47.30
2018-11-07T02:53:12.856Z,47.20
2018-11-07T02:55:40.279Z,47.30
2018-11-07T02:58:06.501Z,47.30
2018-11-07T03:00:32.740Z,47.40
2018-11-07T03:02:58.968Z,47.40
2018-11-07T03:05:25.200Z,47.40
2018-11-07T03:07:51.417Z,47.30
2018-11-07T03:10:17.652Z,47.30
2018-11-07T03:12:43.882Z,47.30
2018-11-07T03:15:10.119Z,47.20
2018-11-07T03:17:36.346Z,47.20
2018-11-07T03:20:02.571Z,47.20
2018-11-07T03:22:28.804Z,47.20
2018-11-07T03:24:55.035Z,47.90
2018-11-07T03:27:21.273Z,47.20
2018-11-07T03:29:47.498Z,47.20
2018-11-07T03:32:13.728Z,47.20
2018-11-07T03:34:39.950Z,47.20
2018-11-07T03:37:06.175Z,47.30
2018-11-07T03:39:32.448Z,47.20
2018-11-07T03:41:59.871Z,47.20
2018-11-07T03:44:26.099Z,47.20
2018-11-07T03:46:52.323Z,47.20
2018-11-07T03:49:18.570Z,47.20
2018-11-07T03:51:44.792Z,47.20
2018-11-07T03:54:11.024Z,47.20
2018-11-07T03:56:37.247Z,47.20
2018-11-07T03:59:03.475Z,47.20
2018-11-07T04:01:29.703Z,47.20
2018-11-07T04:03:55.943Z,47.20
2018-11-07T04:06:22.176Z,47.20
2018-11-07T04:08:48.397Z,47.20
2018-11-07T04:11:14.624Z,47.10
2018-11-07T04:13:40.859Z,47.30
2018-11-07T04:16:07.091Z,47.30
2018-11-07T04:18:33.325Z,47.20
2018-11-07T04:20:59.544Z,47.20
2018-11-07T04:23:25.771Z,47.30
2018-11-07T04:25:52.012Z,47.20
2018-11-07T04:28:18.243Z,47.20
2018-11-07T04:30:44.469Z,47.20
2018-11-07T04:33:10.691Z,47.20
2018-11-07T04:35:36.932Z,47.10
2018-11-07T04:38:03.155Z,47.10
2018-11-07T04:40:29.389Z,47.20
2018-11-07T04:42:55.618Z,47.20
2018-11-07T04:45:21.847Z,47.20
2018-11-07T04:47:48.082Z,47.20
2018-11-07T04:50:14.301Z,47.20
2018-11-07T04:52:40.531Z,47.10
2018-11-07T04:55:06.765Z,47.20
2018-11-07T04:57:32.988Z,47.10
2018-11-07T04:59:59.244Z,47.20
2018-11-07T05:02:26.485Z,47.10
2018-11-07T05:04:52.912Z,47.20
2018-11-07T05:07:19.143Z,47.10
2018-11-07T05:09:45.384Z,47.00
2018-11-07T05:12:11.600Z,47.10
2018-11-07T05:14:37.831Z,47.10
2018-11-07T05:17:04.064Z,47.10
2018-11-07T05:19:30.345Z,47.10
2018-11-07T05:21:57.546Z,47.10
2018-11-07T05:24:23.973Z,47.00
2018-11-07T05:26:50.212Z,47.00
2018-11-07T05:29:16.444Z,46.90
2018-11-07T05:31:42.672Z,47.00
2018-11-07T05:34:10.127Z,47.00
2018-11-07T05:36:36.356Z,47.70
2018-11-07T05:39:02.581Z,47.10
2018-11-07T05:41:28.839Z,47.00
2018-11-07T05:43:55.048Z,47.00
2018-11-07T05:46:21.276Z,47.00
2018-11-07T05:48:47.503Z,47.10
2018-11-07T05:51:14.966Z,47.10
2018-11-07T05:53:41.192Z,47.00
2018-11-07T05:56:07.422Z,47.00
2018-11-07T05:58:33.655Z,47.00
2018-11-07T06:00:59.888Z,47.00
2018-11-07T06:03:26.115Z,47.00
2018-11-07T06:05:52.347Z,47.00
2018-11-07T06:08:18.571Z,46.90
2018-11-07T06:10:44.803Z,46.90
2018-11-07T06:13:11.040Z,46.90
2018-11-07T06:15:37.256Z,46.90
2018-11-07T06:18:03.490Z,46.80
2018-11-07T06:20:29.718Z,46.80
2018-11-07T06:22:55.985Z,46.80
2018-11-07T06:25:23.415Z,46.80
2018-11-07T06:27:49.641Z,46.80
2018-11-07T06:30:15.872Z,46.80
2018-11-07T06:32:42.103Z,46.80
2018-11-07T06:35:08.331Z,46.80
2018-11-07T06:37:34.565Z,46.80
2018-11-07T06:40:00.790Z,46.80
2018-11-07T06:42:27.022Z,46.80
2018-11-07T06:44:53.247Z,46.80
2018-11-07T06:47:19.475Z,46.80
2018-11-07T06:49:45.726Z,46.70
2018-11-07T06:52:11.940Z,46.70
2018-11-07T06:54:38.166Z,46.60
2018-11-07T06:57:04.397Z,46.70
2018-11-07T06:59:30.632Z,46.70
2018-11-07T07:01:56.861Z,46.70
2018-11-07T07:04:23.085Z,46.70
2018-11-07T07:06:49.323Z,46.80
2018-11-07T07:09:15.541Z,46.70
2018-11-07T07:11:42.182Z,46.70
2018-11-07T07:14:08.411Z,46.60
2018-11-07T07:16:34.642Z,46.70
2018-11-07T07:19:00.879Z,46.60
2018-11-07T07:21:28.364Z,46.50
2018-11-07T07:23:54.574Z,46.50
2018-11-07T07:26:20.803Z,46.60
2018-11-07T07:28:47.024Z,46.50
2018-11-07T07:31:13.248Z,46.60
2018-11-07T07:33:39.510Z,46.60
2018-11-07T07:36:06.952Z,46.50
2018-11-07T07:38:33.172Z,46.50
2018-11-07T07:40:59.420Z,46.50
2018-11-07T07:43:25.630Z,46.40
2018-11-07T07:45:51.864Z,46.60
2018-11-07T07:48:18.095Z,46.60
2018-11-07T07:50:44.327Z,46.50
2018-11-07T07:53:10.637Z,46.40
2018-11-07T07:55:37.660Z,46.50
2018-11-07T07:58:03.832Z,46.50
2018-11-07T08:00:30.053Z,46.40
2018-11-07T08:02:56.290Z,46.40
2018-11-07T08:05:22.521Z,46.40
2018-11-07T08:07:48.742Z,46.40
2018-11-07T08:10:14.992Z,46.40
2018-11-07T08:12:41.205Z,46.30
2018-11-07T08:15:07.437Z,46.40
2018-11-07T08:17:33.667Z,46.40
2018-11-07T08:19:59.890Z,46.30
2018-11-07T08:22:26.127Z,46.30
2018-11-07T08:24:52.352Z,46.40
2018-11-07T08:27:18.592Z,46.40
2018-11-07T08:29:44.815Z,46.40
2018-11-07T08:32:11.082Z,46.40
2018-11-07T08:34:38.142Z,46.50
2018-11-07T08:37:04.324Z,46.40
2018-11-07T08:39:30.559Z,46.40
2018-11-07T08:41:56.783Z,46.40
2018-11-07T08:44:23.020Z,46.50
2018-11-07T08:46:49.244Z,46.50
2018-11-07T08:49:15.476Z,46.50
2018-11-07T08:51:41.698Z,46.50
2018-11-07T08:54:07.931Z,46.50
2018-11-07T08:56:34.157Z,46.50
2018-11-07T08:59:00.391Z,46.40
2018-11-07T09:01:26.685Z,46.40
2018-11-07T09:03:54.072Z,46.40
2018-11-07T09:06:20.319Z,46.50
2018-11-07T09:08:46.573Z,46.40
2018-11-07T09:11:13.992Z,46.40
2018-11-07T09:13:40.216Z,46.40
2018-11-07T09:16:06.447Z,46.50
2018-11-07T09:18:32.667Z,46.40
2018-11-07T09:20:58.903Z,46.50
2018-11-07T09:23:25.123Z,46.50
2018-11-07T09:25:51.347Z,46.50
2018-11-07T09:28:17.575Z,46.50
2018-11-07T09:30:43.808Z,46.50
2018-11-07T09:33:10.043Z,46.50
2018-11-07T09:35:36.271Z,46.50
2018-11-07T09:38:02.488Z,46.50
2018-11-07T09:40:28.729Z,46.50
2018-11-07T09:42:54.958Z,46.40
2018-11-07T09:45:21.182Z,46.40
2018-11-07T09:47:47.407Z,46.40
2018-11-07T09:50:13.635Z,46.40
2018-11-07T09:52:39.861Z,46.40
2018-11-07T09:55:06.095Z,46.40
2018-11-07T09:57:32.327Z,46.50
2018-11-07T09:59:58.547Z,46.50
2018-11-07T10:02:24.794Z,46.50
2018-11-07T10:04:51.006Z,46.50
2018-11-07T10:07:17.231Z,46.50
2018-11-07T10:09:43.463Z,46.50
2018-11-07T10:12:09.682Z,46.50
2018-11-07T10:14:35.920Z,46.50
2018-11-07T10:17:02.148Z,46.50
2018-11-07T10:19:28.379Z,46.50
2018-11-07T10:21:54.607Z,46.50
2018-11-07T10:24:20.839Z,46.50
2018-11-07T10:26:47.159Z,46.50
2018-11-07T10:29:14.695Z,46.50
2018-11-07T10:31:41.568Z,46.50
2018-11-07T10:34:07.808Z,46.50
2018-11-07T10:36:34.038Z,46.50
2018-11-07T10:39:00.292Z,46.50
2018-11-07T10:41:27.719Z,46.50
2018-11-07T10:43:54.040Z,46.50
2018-11-07T10:46:21.207Z,46.50
2018-11-07T10:48:47.635Z,46.50
2018-11-07T10:51:13.861Z,46.50
2018-11-07T10:53:40.088Z,46.50
2018-11-07T10:56:06.318Z,46.50
2018-11-07T10:58:32.546Z,46.50
2018-11-07T11:00:58.780Z,46.40
2018-11-07T11:03:25.013Z,46.40
2018-11-07T11:05:51.234Z,46.50
2018-11-07T11:08:17.463Z,46.50
2018-11-07T11:10:43.700Z,46.50
2018-11-07T11:13:09.932Z,46.50
2018-11-07T11:15:36.154Z,46.50
2018-11-07T11:18:02.758Z,46.50
2018-11-07T11:20:29.028Z,46.50
2018-11-07T11:22:55.253Z,46.50
2018-11-07T11:25:21.484Z,46.50
2018-11-07T11:27:47.705Z,46.50
2018-11-07T11:30:13.948Z,46.50
2018-11-07T11:32:40.179Z,46.50
2018-11-07T11:35:06.496Z,46.40
2018-11-07T11:37:33.862Z,46.40
2018-11-07T11:40:00.088Z,46.40
2018-11-07T11:42:26.311Z,46.40
2018-11-07T11:44:52.541Z,46.40
2018-11-07T11:47:18.775Z,46.40
2018-11-07T11:49:45.004Z,46.50
2018-11-07T11:52:11.225Z,46.50
2018-11-07T11:54:37.466Z,46.50
2018-11-07T11:57:03.688Z,46.50
2018-11-07T11:59:30.077Z,46.50
2018-11-07T12:01:57.375Z,47.10
2018-11-07T12:04:23.604Z,46.40
2018-11-07T12:06:49.835Z,46.40
2018-11-07T12:09:16.060Z,46.40
2018-11-07T12:11:42.320Z,46.40
2018-11-07T12:14:09.759Z,46.40
2018-11-07T12:16:35.982Z,46.40
2018-11-07T12:19:02.208Z,46.40
2018-11-07T12:21:28.443Z,46.50
2018-11-07T12:23:54.668Z,46.40
2018-11-07T12:26:20.898Z,46.40
2018-11-07T12:28:47.136Z,46.50
2018-11-07T12:31:13.356Z,46.40
2018-11-07T12:33:39.591Z,46.50
2018-11-07T12:36:06.668Z,46.40
2018-11-07T12:38:34.105Z,46.50
2018-11-07T12:41:00.321Z,46.50
2018-11-07T12:43:26.549Z,46.50
2018-11-07T12:45:52.779Z,46.40
2018-11-07T12:48:19.003Z,46.40
2018-11-07T12:50:45.232Z,46.50
2018-11-07T12:53:11.465Z,46.50
2018-11-07T12:55:37.688Z,46.50
2018-11-07T12:58:04.047Z,46.40
2018-11-07T13:00:30.559Z,46.50
2018-11-07T13:02:56.899Z,46.50
2018-11-07T13:05:23.231Z,46.40
2018-11-07T13:07:50.374Z,46.50
2018-11-07T13:10:16.698Z,46.50
2018-11-07T13:12:42.937Z,46.50
2018-11-07T13:15:09.163Z,46.50
2018-11-07T13:17:35.392Z,46.40
2018-11-07T13:20:01.618Z,46.40
2018-11-07T13:22:27.937Z,46.40
2018-11-07T13:24:55.307Z,46.40
2018-11-07T13:27:21.532Z,46.30
2018-11-07T13:29:47.769Z,46.40
2018-11-07T13:32:13.984Z,46.40
2018-11-07T13:34:40.251Z,46.40
2018-11-07T13:37:07.741Z,46.40
2018-11-07T13:39:35.142Z,46.40
2018-11-07T13:42:01.363Z,46.40
2018-11-07T13:44:27.591Z,46.40
2018-11-07T13:46:53.822Z,46.40
2018-11-07T13:49:20.047Z,46.40
2018-11-07T13:51:46.278Z,46.40
2018-11-07T13:54:12.503Z,46.40
2018-11-07T13:56:38.726Z,46.40
2018-11-07T13:59:04.986Z,46.40
2018-11-07T14:01:32.420Z,46.40
2018-11-07T14:03:58.653Z,46.40
2018-11-07T14:06:24.879Z,46.40
2018-11-07T14:08:51.107Z,46.40
2018-11-07T14:11:17.328Z,46.50
2018-11-07T14:13:43.559Z,46.40
2018-11-07T14:16:09.913Z,46.50
2018-11-07T14:18:37.257Z,46.60
2018-11-07T14:21:03.479Z,46.40
2018-11-07T14:23:30.932Z,46.50
2018-11-07T14:25:57.164Z,46.40
2018-11-07T14:28:23.513Z,46.50
2018-11-07T14:30:50.847Z,46.40
2018-11-07T14:33:17.076Z,46.40
2018-11-07T14:35:43.302Z,46.40
2018-11-07T14:38:09.539Z,46.30
2018-11-07T14:40:35.760Z,46.40
2018-11-07T14:43:01.987Z,46.40
2018-11-07T14:45:28.214Z,46.40
2018-11-07T14:47:54.553Z,46.40
2018-11-07T14:50:21.902Z,46.40
2018-11-07T14:52:48.144Z,46.40
2018-11-07T14:55:14.359Z,46.40
2018-11-07T14:57:40.582Z,46.30
2018-11-07T15:00:06.812Z,46.40
2018-11-07T15:02:33.093Z,46.40
2018-11-07T15:05:00.494Z,46.30
2018-11-07T15:07:26.731Z,46.20
2018-11-07T15:09:52.978Z,46.40
2018-11-07T15:12:20.080Z,46.30
2018-11-07T15:14:46.642Z,46.30
2018-11-07T15:17:12.935Z,46.30
2018-11-07T15:19:39.500Z,46.30
2018-11-07T15:22:05.736Z,46.30
2018-11-07T15:24:31.968Z,46.20
2018-11-07T15:26:58.194Z,46.30
2018-11-07T15:29:24.421Z,46.30
2018-11-07T15:31:50.648Z,46.30
2018-11-07T15:34:16.876Z,46.30
2018-11-07T15:36:43.103Z,46.20
2018-11-07T15:39:09.332Z,46.20
2018-11-07T15:41:35.570Z,46.90
2018-11-07T15:44:01.794Z,46.20
2018-11-07T15:46:28.007Z,46.20
2018-11-07T15:48:54.247Z,46.20
2018-11-07T15:51:20.468Z,46.10
2018-11-07T15:53:46.701Z,46.20
2018-11-07T15:56:12.919Z,46.10
2018-11-07T15:58:39.155Z,46.10
2018-11-07T16:01:05.382Z,46.10
2018-11-07T16:03:31.615Z,46.10
2018-11-07T16:05:57.901Z,46.10
2018-11-07T16:08:25.294Z,46.10
2018-11-07T16:10:51.519Z,46.10
2018-11-07T16:13:17.767Z,46.10
2018-11-07T16:15:45.258Z,46.10
2018-11-07T16:18:12.659Z,46.00
2018-11-07T16:20:38.926Z,46.00
2018-11-07T16:23:06.386Z,46.10
2018-11-07T16:25:33.595Z,46.10
2018-11-07T16:28:00.032Z,46.10
2018-11-07T16:30:26.259Z,46.10
2018-11-07T16:32:52.483Z,46.10
2018-11-07T16:35:18.727Z,46.10
2018-11-07T16:37:44.946Z,46.80
2018-11-07T16:40:12.402Z,46.20
2018-11-07T16:42:38.649Z,46.10
2018-11-07T16:45:06.093Z,46.00
2018-11-07T16:47:32.367Z,46.00
2018-11-07T16:50:00.582Z,46.00
2018-11-07T16:52:26.866Z,46.00
2018-11-07T16:54:54.273Z,46.10
2018-11-07T16:57:20.499Z,46.10
2018-11-07T16:59:46.723Z,46.10
2018-11-07T17:02:12.949Z,46.10
2018-11-07T17:04:39.197Z,46.10
2018-11-07T17:07:06.711Z,46.10
2018-11-07T17:09:34.090Z,46.10
2018-11-07T17:12:00.323Z,46.10
2018-11-07T17:14:26.553Z,46.10
2018-11-07T17:16:52.778Z,46.10
2018-11-07T17:19:19.002Z,46.10
2018-11-07T17:21:45.235Z,46.00
2018-11-07T17:24:11.599Z,46.10
2018-11-07T17:26:38.995Z,46.20
2018-11-07T17:29:05.561Z,46.20
2018-11-07T17:31:31.816Z,46.10
2018-11-07T17:33:59.028Z,46.10
2018-11-07T17:36:26.280Z,46.20
2018-11-07T17:38:52.508Z,46.20
2018-11-07T17:41:18.739Z,46.10
2018-11-07T17:43:44.967Z,46.20
2018-11-07T17:46:11.247Z,46.20
2018-11-07T17:48:38.514Z,46.20
2018-11-07T17:51:04.875Z,46.20
2018-11-07T17:53:31.103Z,46.10
2018-11-07T17:55:57.335Z,46.20
2018-11-07T17:58:23.564Z,46.30
2018-11-07T18:00:49.790Z,46.40
2018-11-07T18:03:16.013Z,46.30
2018-11-07T18:05:42.263Z,46.30
2018-11-07T18:08:08.472Z,46.30
2018-11-07T18:10:34.698Z,46.30
2018-11-07T18:13:00.928Z,46.30
2018-11-07T18:15:27.266Z,46.30
2018-11-07T18:17:57.483Z,46.30
2018-11-07T18:20:23.707Z,46.30
2018-11-07T18:22:49.934Z,46.30
2018-11-07T18:25:16.554Z,46.30
2018-11-07T18:27:42.801Z,46.30
2018-11-07T18:30:09.037Z,46.30
2018-11-07T18:32:35.262Z,46.30
2018-11-07T18:35:01.505Z,46.30
2018-11-07T18:37:28.947Z,46.30
2018-11-07T18:39:57.955Z,46.30
2018-11-07T18:42:24.275Z,47.00
2018-11-07T18:44:50.600Z,46.30
2018-11-07T18:47:17.133Z,46.30
2018-11-07T18:49:43.367Z,46.40
2018-11-07T18:52:09.590Z,46.40
2018-11-07T18:54:35.823Z,46.40
2018-11-07T18:57:02.053Z,46.30
2018-11-07T18:59:28.274Z,47.10
2018-11-07T19:01:54.506Z,46.30
2018-11-07T19:04:20.788Z,46.30
2018-11-07T19:06:47.254Z,46.30
2018-11-07T19:09:13.596Z,46.40
2018-11-07T19:11:39.828Z,46.40
2018-11-07T19:14:05.972Z,46.30
2018-11-07T19:16:32.286Z,46.30
2018-11-07T19:18:58.513Z,46.40
2018-11-07T19:21:24.730Z,46.40
2018-11-07T19:23:51.091Z,46.40
2018-11-07T19:26:17.596Z,46.40
2018-11-07T19:28:45.067Z,46.40
2018-11-07T19:31:11.293Z,46.40
2018-11-07T19:33:37.510Z,46.40
2018-11-07T19:36:03.767Z,46.30
2018-11-07T19:38:29.985Z,46.30
2018-11-07T19:40:56.209Z,46.30
2018-11-07T19:43:22.426Z,46.30
2018-11-07T19:45:48.661Z,46.40
2018-11-07T19:48:15.272Z,46.40
2018-11-07T19:50:41.546Z,46.40
2018-11-07T19:53:07.758Z,46.40
2018-11-07T19:55:33.969Z,46.30
2018-11-07T19:58:00.207Z,46.40
2018-11-07T20:00:26.432Z,46.40
2018-11-07T20:02:52.660Z,46.40
2018-11-07T20:05:18.985Z,46.30
2018-11-07T20:07:45.527Z,46.30
2018-11-07T20:10:11.837Z,46.40
2018-11-07T20:12:38.395Z,46.40
2018-11-07T20:15:04.620Z,46.40
2018-11-07T20:17:30.842Z,46.40
2018-11-07T20:19:57.072Z,46.40
2018-11-07T20:22:23.326Z,46.50
2018-11-07T20:24:50.764Z,46.40
2018-11-07T20:27:16.986Z,46.40
2018-11-07T20:29:43.211Z,46.40
2018-11-07T20:32:09.440Z,46.50
2018-11-07T20:34:35.674Z,46.50
2018-11-07T20:37:01.899Z,46.50
2018-11-07T20:39:28.128Z,46.50
2018-11-07T20:41:54.543Z,46.50
2018-11-07T20:44:20.808Z,46.40
2018-11-07T20:46:47.218Z,46.50
2018-11-07T20:49:13.640Z,46.50
2018-11-07T20:51:40.900Z,46.50
2018-11-07T20:54:07.130Z,46.50
2018-11-07T20:56:33.442Z,47.20
2018-11-07T20:58:59.999Z,46.50
2018-11-07T21:01:26.229Z,46.50
2018-11-07T21:03:52.458Z,46.50
2018-11-07T21:06:18.683Z,46.50
2018-11-07T21:08:44.922Z,46.40
2018-11-07T21:11:11.140Z,46.50
2018-11-07T21:13:37.367Z,46.50
2018-11-07T21:16:03.606Z,46.50
2018-11-07T21:18:29.824Z,46.50
2018-11-07T21:20:56.046Z,46.40
2018-11-07T21:23:22.282Z,46.50
2018-11-07T21:25:48.516Z,46.50
2018-11-07T21:28:14.740Z,46.50
2018-11-07T21:30:40.968Z,46.50
2018-11-07T21:33:07.194Z,46.50
2018-11-07T21:35:34.239Z,46.60
2018-11-07T21:38:00.467Z,46.50
2018-11-07T21:40:26.699Z,46.50
2018-11-07T21:42:52.950Z,46.50
2018-11-07T21:45:20.382Z,46.60
2018-11-07T21:47:46.612Z,46.60
2018-11-07T21:50:12.829Z,46.70
2018-11-07T21:52:39.059Z,46.70
2018-11-07T21:55:05.282Z,46.70
2018-11-07T21:57:31.512Z,46.60
2018-11-07T21:59:57.739Z,46.50
2018-11-07T22:02:23.971Z,47.20
2018-11-07T22:04:50.202Z,46.60
2018-11-07T22:07:16.434Z,46.50
2018-11-07T22:09:42.655Z,46.70
2018-11-07T22:12:08.879Z,46.60
2018-11-07T22:14:35.104Z,46.60
2018-11-07T22:17:01.339Z,46.70
2018-11-07T22:19:27.568Z,46.60
2018-11-07T22:21:53.797Z,46.60
2018-11-07T22:24:20.021Z,46.60
2018-11-07T22:26:47.474Z,46.60
2018-11-07T22:29:13.697Z,46.60
2018-11-07T22:31:39.957Z,46.50
2018-11-07T22:34:07.382Z,46.70
2018-11-07T22:36:33.619Z,46.70
2018-11-07T22:38:59.844Z,46.60
2018-11-07T22:41:26.071Z,46.60
2018-11-07T22:43:52.298Z,46.70
2018-11-07T22:46:18.528Z,46.70
2018-11-07T22:48:44.743Z,46.70
2018-11-07T22:51:11.000Z,46.70
2018-11-07T22:53:37.212Z,46.70
2018-11-07T22:56:03.446Z,46.70
2018-11-07T22:58:29.667Z,46.80
2018-11-07T23:00:55.895Z,46.60
2018-11-07T23:03:22.123Z,46.60
2018-11-07T23:05:48.393Z,46.60
2018-11-07T23:08:14.988Z,46.70
2018-11-07T23:10:41.216Z,46.70
2018-11-07T23:13:07.463Z,46.70
2018-11-07T23:15:33.668Z,46.70
2018-11-07T23:17:59.895Z,46.70
2018-11-07T23:20:26.127Z,46.70
2018-11-07T23:22:52.351Z,46.80
2018-11-07T23:25:18.579Z,46.70
2018-11-07T23:27:44.807Z,46.70
2018-11-07T23:30:11.031Z,46.70
2018-11-07T23:32:37.264Z,46.70
2018-11-07T23:35:03.490Z,46.70
2018-11-07T23:37:29.706Z,46.80
2018-11-07T23:39:55.932Z,46.80
2018-11-07T23:42:22.164Z,46.80
2018-11-07T23:44:48.393Z,46.80
2018-11-07T23:47:14.639Z,46.80
2018-11-07T23:49:41.254Z,46.70
2018-11-07T23:52:07.526Z,46.80
2018-11-07T23:54:33.718Z,46.80
2018-11-07T23:56:59.941Z,46.80
2018-11-07T23:59:27.397Z,46.80
